Milton, New Hampshire
Current Conditions -  °F | °C
As of 5:51 AM on Saturday 25 Oct 2014 (Local Time) from KDAW Reporting Station
Broken Clouds Broken Clouds  
Wind Chill: 44°   Ceiling: 9000
Heat Index: 46°   Visibility: 10mi
Dew Point: 38°   Wind: 5mph
Humidity: 73%   Direction: NA
Pressure: 29.71"   Gusts: NA
Location:  43.41°N, 70.99°W
Report Text: KDAW 250951Z AUTO VRB04KT 10SM BKN090 08/03 A2971 RMK AO2 SLP057 T00780033
Loading
Personal Weather Stations






























Interactive Weather Map
Tropical Storm Tracking
New forecast layout! Learn more

10-Day Weather Forecast

Advertisements
Track Severe Weather on mobile